sensor_id;sensor_type;location;lat;lon;timestamp;P1;durP1;ratioP1;P2;durP2;ratioP2
48861;SDS011;34681;49.188;-0.374;2023-05-07T00:02:11;7.30;;;4.07;;
48861;SDS011;34681;49.188;-0.374;2023-05-07T00:04:36;5.57;;;3.90;;
48861;SDS011;34681;49.188;-0.374;2023-05-07T00:07:03;4.17;;;3.53;;
48861;SDS011;34681;49.188;-0.374;2023-05-07T00:09:29;5.20;;;4.10;;
48861;SDS011;34681;49.188;-0.374;2023-05-07T00:11:55;4.73;;;3.40;;
48861;SDS011;34681;49.188;-0.374;2023-05-07T00:14:20;4.17;;;3.80;;
48861;SDS011;34681;49.188;-0.374;2023-05-07T00:16:45;4.13;;;3.63;;
48861;SDS011;34681;49.188;-0.374;2023-05-07T00:19:11;3.20;;;3.00;;
48861;SDS011;34681;49.188;-0.374;2023-05-07T00:21:36;5.93;;;3.93;;
48861;SDS011;34681;49.188;-0.374;2023-05-07T00:24:02;3.60;;;3.30;;
48861;SDS011;34681;49.188;-0.374;2023-05-07T00:26:28;5.00;;;3.70;;
48861;SDS011;34681;49.188;-0.374;2023-05-07T00:28:53;5.23;;;3.80;;
48861;SDS011;34681;49.188;-0.374;2023-05-07T00:31:18;5.30;;;3.90;;
48861;SDS011;34681;49.188;-0.374;2023-05-07T00:33:44;3.40;;;3.20;;
48861;SDS011;34681;49.188;-0.374;2023-05-07T00:36:09;5.27;;;3.40;;
48861;SDS011;34681;49.188;-0.374;2023-05-07T00:38:34;6.53;;;3.50;;
48861;SDS011;34681;49.188;-0.374;2023-05-07T00:41:00;4.33;;;3.10;;
48861;SDS011;34681;49.188;-0.374;2023-05-07T00:43:25;3.47;;;3.23;;
48861;SDS011;34681;49.188;-0.374;2023-05-07T00:45:51;3.40;;;3.20;;
48861;SDS011;34681;49.188;-0.374;2023-05-07T00:48:16;3.30;;;3.10;;
48861;SDS011;34681;49.188;-0.374;2023-05-07T00:50:42;4.13;;;3.70;;
48861;SDS011;34681;49.188;-0.374;2023-05-07T00:53:08;3.87;;;3.40;;
48861;SDS011;34681;49.188;-0.374;2023-05-07T00:55:33;3.80;;;3.50;;
48861;SDS011;34681;49.188;-0.374;2023-05-07T00:58:00;3.50;;;2.83;;
48861;SDS011;34681;49.188;-0.374;2023-05-07T01:00:26;4.00;;;3.10;;
48861;SDS011;34681;49.188;-0.374;2023-05-07T01:02:51;3.23;;;2.60;;
48861;SDS011;34681;49.188;-0.374;2023-05-07T01:05:17;7.43;;;3.10;;
48861;SDS011;34681;49.188;-0.374;2023-05-07T01:07:45;4.10;;;3.30;;
48861;SDS011;34681;49.188;-0.374;2023-05-07T01:10:12;2.83;;;2.40;;
48861;SDS011;34681;49.188;-0.374;2023-05-07T01:12:37;7.20;;;2.83;;
48861;SDS011;34681;49.188;-0.374;2023-05-07T01:15:05;3.73;;;2.67;;
48861;SDS011;34681;49.188;-0.374;2023-05-07T01:17:33;5.00;;;3.30;;
48861;SDS011;34681;49.188;-0.374;2023-05-07T01:20:04;3.13;;;2.90;;
48861;SDS011;34681;49.188;-0.374;2023-05-07T01:22:34;3.20;;;2.67;;
48861;SDS011;34681;49.188;-0.374;2023-05-07T01:25:01;2.67;;;2.57;;
48861;SDS011;34681;49.188;-0.374;2023-05-07T01:27:28;4.77;;;2.90;;
48861;SDS011;34681;49.188;-0.374;2023-05-07T01:29:53;5.10;;;2.83;;
48861;SDS011;34681;49.188;-0.374;2023-05-07T01:32:21;5.37;;;3.17;;
48861;SDS011;34681;49.188;-0.374;2023-05-07T01:34:52;3.50;;;3.03;;
48861;SDS011;34681;49.188;-0.374;2023-05-07T01:37:19;4.23;;;3.00;;
48861;SDS011;34681;49.188;-0.374;2023-05-07T01:39:45;3.07;;;2.87;;
48861;SDS011;34681;49.188;-0.374;2023-05-07T01:42:12;3.37;;;3.13;;
48861;SDS011;34681;49.188;-0.374;2023-05-07T01:44:37;3.37;;;3.07;;
48861;SDS011;34681;49.188;-0.374;2023-05-07T01:47:03;2.87;;;2.67;;
48861;SDS011;34681;49.188;-0.374;2023-05-07T01:49:28;6.80;;;3.50;;
48861;SDS011;34681;49.188;-0.374;2023-05-07T01:51:55;3.50;;;2.80;;
48861;SDS011;34681;49.188;-0.374;2023-05-07T01:54:24;3.30;;;2.60;;
48861;SDS011;34681;49.188;-0.374;2023-05-07T01:56:52;3.60;;;2.57;;
48861;SDS011;34681;49.188;-0.374;2023-05-07T01:59:17;4.00;;;3.03;;
48861;SDS011;34681;49.188;-0.374;2023-05-07T02:01:43;2.70;;;2.50;;
48861;SDS011;34681;49.188;-0.374;2023-05-07T02:04:08;3.37;;;3.10;;
48861;SDS011;34681;49.188;-0.374;2023-05-07T02:06:33;2.93;;;2.73;;
48861;SDS011;34681;49.188;-0.374;2023-05-07T02:08:59;4.27;;;3.10;;
48861;SDS011;34681;49.188;-0.374;2023-05-07T02:11:24;3.90;;;2.90;;
48861;SDS011;34681;49.188;-0.374;2023-05-07T02:13:50;4.10;;;3.13;;
48861;SDS011;34681;49.188;-0.374;2023-05-07T02:16:15;2.90;;;2.70;;
48861;SDS011;34681;49.188;-0.374;2023-05-07T02:18:41;3.27;;;2.97;;
48861;SDS011;34681;49.188;-0.374;2023-05-07T02:21:06;3.23;;;2.97;;
48861;SDS011;34681;49.188;-0.374;2023-05-07T02:23:33;4.30;;;3.27;;
48861;SDS011;34681;49.188;-0.374;2023-05-07T02:25:58;4.47;;;3.20;;
48861;SDS011;34681;49.188;-0.374;2023-05-07T02:28:23;2.77;;;2.57;;
48861;SDS011;34681;49.188;-0.374;2023-05-07T02:30:49;2.97;;;2.67;;
48861;SDS011;34681;49.188;-0.374;2023-05-07T02:33:14;5.87;;;2.43;;
48861;SDS011;34681;49.188;-0.374;2023-05-07T02:35:39;2.30;;;2.10;;
48861;SDS011;34681;49.188;-0.374;2023-05-07T02:38:05;3.40;;;3.10;;
48861;SDS011;34681;49.188;-0.374;2023-05-07T02:40:30;5.83;;;3.30;;
48861;SDS011;34681;49.188;-0.374;2023-05-07T02:42:58;5.23;;;2.97;;
48861;SDS011;34681;49.188;-0.374;2023-05-07T02:45:24;3.70;;;2.80;;
48861;SDS011;34681;49.188;-0.374;2023-05-07T02:47:49;3.03;;;2.83;;
48861;SDS011;34681;49.188;-0.374;2023-05-07T02:50:15;3.70;;;3.13;;
48861;SDS011;34681;49.188;-0.374;2023-05-07T02:52:40;4.87;;;2.70;;
48861;SDS011;34681;49.188;-0.374;2023-05-07T02:55:05;2.97;;;2.70;;
48861;SDS011;34681;49.188;-0.374;2023-05-07T02:57:31;2.87;;;2.67;;
48861;SDS011;34681;49.188;-0.374;2023-05-07T02:59:57;7.70;;;3.10;;
48861;SDS011;34681;49.188;-0.374;2023-05-07T03:02:23;2.90;;;2.60;;
48861;SDS011;34681;49.188;-0.374;2023-05-07T03:04:48;5.53;;;3.37;;
48861;SDS011;34681;49.188;-0.374;2023-05-07T03:07:14;3.20;;;2.90;;
48861;SDS011;34681;49.188;-0.374;2023-05-07T03:09:39;5.03;;;3.73;;
48861;SDS011;34681;49.188;-0.374;2023-05-07T03:12:04;3.50;;;3.30;;
48861;SDS011;34681;49.188;-0.374;2023-05-07T03:14:30;4.00;;;3.60;;
48861;SDS011;34681;49.188;-0.374;2023-05-07T03:16:55;4.53;;;3.63;;
48861;SDS011;34681;49.188;-0.374;2023-05-07T03:19:21;4.97;;;4.00;;
48861;SDS011;34681;49.188;-0.374;2023-05-07T03:21:46;4.47;;;4.07;;
48861;SDS011;34681;49.188;-0.374;2023-05-07T03:24:12;6.77;;;4.57;;
48861;SDS011;34681;49.188;-0.374;2023-05-07T03:26:37;4.33;;;3.80;;
48861;SDS011;34681;49.188;-0.374;2023-05-07T03:29:03;4.23;;;3.83;;
48861;SDS011;34681;49.188;-0.374;2023-05-07T03:31:28;4.67;;;4.30;;
48861;SDS011;34681;49.188;-0.374;2023-05-07T03:33:54;4.37;;;4.07;;
48861;SDS011;34681;49.188;-0.374;2023-05-07T03:36:20;5.27;;;4.87;;
48861;SDS011;34681;49.188;-0.374;2023-05-07T03:38:46;4.47;;;4.03;;
48861;SDS011;34681;49.188;-0.374;2023-05-07T03:41:12;5.00;;;4.27;;
48861;SDS011;34681;49.188;-0.374;2023-05-07T03:43:38;5.63;;;4.73;;
48861;SDS011;34681;49.188;-0.374;2023-05-07T03:46:03;4.80;;;4.23;;
48861;SDS011;34681;49.188;-0.374;2023-05-07T03:48:29;5.27;;;4.80;;
48861;SDS011;34681;49.188;-0.374;2023-05-07T03:50:54;5.37;;;4.90;;
48861;SDS011;34681;49.188;-0.374;2023-05-07T03:53:21;5.33;;;4.83;;
48861;SDS011;34681;49.188;-0.374;2023-05-07T03:55:46;4.83;;;4.50;;
48861;SDS011;34681;49.188;-0.374;2023-05-07T03:58:11;4.73;;;4.13;;
48861;SDS011;34681;49.188;-0.374;2023-05-07T04:00:37;4.70;;;4.30;;
48861;SDS011;34681;49.188;-0.374;2023-05-07T04:03:04;7.17;;;5.20;;
48861;SDS011;34681;49.188;-0.374;2023-05-07T04:05:30;9.23;;;4.97;;
48861;SDS011;34681;49.188;-0.374;2023-05-07T04:07:55;4.77;;;4.37;;
48861;SDS011;34681;49.188;-0.374;2023-05-07T04:10:21;5.17;;;4.87;;
48861;SDS011;34681;49.188;-0.374;2023-05-07T04:12:46;5.20;;;4.60;;
48861;SDS011;34681;49.188;-0.374;2023-05-07T04:15:11;4.60;;;4.23;;
48861;SDS011;34681;49.188;-0.374;2023-05-07T04:17:37;4.33;;;3.83;;
48861;SDS011;34681;49.188;-0.374;2023-05-07T04:20:02;4.93;;;4.37;;
48861;SDS011;34681;49.188;-0.374;2023-05-07T04:22:28;5.17;;;4.20;;
48861;SDS011;34681;49.188;-0.374;2023-05-07T04:24:54;5.13;;;4.10;;
48861;SDS011;34681;49.188;-0.374;2023-05-07T04:27:19;5.90;;;5.37;;
48861;SDS011;34681;49.188;-0.374;2023-05-07T04:29:45;5.90;;;5.00;;
48861;SDS011;34681;49.188;-0.374;2023-05-07T04:32:12;4.70;;;4.30;;
48861;SDS011;34681;49.188;-0.374;2023-05-07T04:34:38;4.27;;;3.80;;
48861;SDS011;34681;49.188;-0.374;2023-05-07T04:37:03;4.47;;;4.17;;
48861;SDS011;34681;49.188;-0.374;2023-05-07T04:39:28;3.77;;;3.43;;
48861;SDS011;34681;49.188;-0.374;2023-05-07T04:41:54;7.17;;;4.33;;
48861;SDS011;34681;49.188;-0.374;2023-05-07T04:44:19;4.33;;;4.03;;
48861;SDS011;34681;49.188;-0.374;2023-05-07T04:46:44;7.00;;;4.67;;
48861;SDS011;34681;49.188;-0.374;2023-05-07T04:49:10;4.30;;;4.00;;
48861;SDS011;34681;49.188;-0.374;2023-05-07T04:51:36;4.30;;;4.00;;
48861;SDS011;34681;49.188;-0.374;2023-05-07T04:54:03;3.60;;;3.40;;
48861;SDS011;34681;49.188;-0.374;2023-05-07T04:56:28;3.80;;;3.50;;
48861;SDS011;34681;49.188;-0.374;2023-05-07T04:58:55;4.70;;;3.60;;
48861;SDS011;34681;49.188;-0.374;2023-05-07T05:01:20;4.20;;;3.90;;
48861;SDS011;34681;49.188;-0.374;2023-05-07T05:03:46;6.13;;;3.53;;
48861;SDS011;34681;49.188;-0.374;2023-05-07T05:06:11;3.83;;;3.63;;
48861;SDS011;34681;49.188;-0.374;2023-05-07T05:08:36;4.63;;;4.23;;
48861;SDS011;34681;49.188;-0.374;2023-05-07T05:11:02;4.40;;;4.10;;
48861;SDS011;34681;49.188;-0.374;2023-05-07T05:13:27;4.03;;;3.70;;
48861;SDS011;34681;49.188;-0.374;2023-05-07T05:15:53;3.60;;;3.30;;
48861;SDS011;34681;49.188;-0.374;2023-05-07T05:18:18;5.53;;;4.80;;
48861;SDS011;34681;49.188;-0.374;2023-05-07T05:20:43;4.10;;;3.80;;
48861;SDS011;34681;49.188;-0.374;2023-05-07T05:23:09;3.70;;;3.40;;
48861;SDS011;34681;49.188;-0.374;2023-05-07T05:25:34;3.93;;;3.70;;
48861;SDS011;34681;49.188;-0.374;2023-05-07T05:27:59;4.10;;;3.70;;
48861;SDS011;34681;49.188;-0.374;2023-05-07T05:30:25;3.83;;;3.53;;
48861;SDS011;34681;49.188;-0.374;2023-05-07T05:32:50;4.30;;;3.83;;
48861;SDS011;34681;49.188;-0.374;2023-05-07T05:35:16;3.90;;;3.60;;
48861;SDS011;34681;49.188;-0.374;2023-05-07T05:37:41;3.73;;;3.53;;
48861;SDS011;34681;49.188;-0.374;2023-05-07T05:40:06;4.03;;;3.70;;
48861;SDS011;34681;49.188;-0.374;2023-05-07T05:42:32;3.80;;;3.50;;
48861;SDS011;34681;49.188;-0.374;2023-05-07T05:45:00;4.03;;;3.73;;
48861;SDS011;34681;49.188;-0.374;2023-05-07T05:47:25;4.30;;;3.90;;
48861;SDS011;34681;49.188;-0.374;2023-05-07T05:49:51;4.87;;;4.33;;
48861;SDS011;34681;49.188;-0.374;2023-05-07T05:52:16;3.53;;;3.23;;
48861;SDS011;34681;49.188;-0.374;2023-05-07T05:54:42;4.10;;;3.70;;
48861;SDS011;34681;49.188;-0.374;2023-05-07T05:57:07;2.77;;;2.67;;
48861;SDS011;34681;49.188;-0.374;2023-05-07T05:59:33;4.43;;;3.40;;
48861;SDS011;34681;49.188;-0.374;2023-05-07T06:01:58;3.90;;;3.70;;
48861;SDS011;34681;49.188;-0.374;2023-05-07T06:04:24;3.90;;;3.57;;
48861;SDS011;34681;49.188;-0.374;2023-05-07T06:06:50;3.10;;;2.90;;
48861;SDS011;34681;49.188;-0.374;2023-05-07T06:09:15;2.50;;;2.40;;
48861;SDS011;34681;49.188;-0.374;2023-05-07T06:11:40;4.00;;;3.70;;
48861;SDS011;34681;49.188;-0.374;2023-05-07T06:14:06;3.30;;;3.10;;
48861;SDS011;34681;49.188;-0.374;2023-05-07T06:16:31;3.57;;;3.40;;
48861;SDS011;34681;49.188;-0.374;2023-05-07T06:18:56;4.10;;;3.90;;
48861;SDS011;34681;49.188;-0.374;2023-05-07T06:21:22;4.43;;;4.20;;
48861;SDS011;34681;49.188;-0.374;2023-05-07T06:23:47;4.20;;;3.90;;
48861;SDS011;34681;49.188;-0.374;2023-05-07T06:26:12;4.00;;;3.80;;
48861;SDS011;34681;49.188;-0.374;2023-05-07T06:28:38;4.50;;;4.20;;
48861;SDS011;34681;49.188;-0.374;2023-05-07T06:31:12;4.43;;;4.23;;
48861;SDS011;34681;49.188;-0.374;2023-05-07T06:33:39;4.07;;;3.87;;
48861;SDS011;34681;49.188;-0.374;2023-05-07T06:36:05;4.60;;;4.40;;
48861;SDS011;34681;49.188;-0.374;2023-05-07T06:38:30;4.30;;;4.00;;
48861;SDS011;34681;49.188;-0.374;2023-05-07T06:40:56;4.90;;;4.60;;
48861;SDS011;34681;49.188;-0.374;2023-05-07T06:43:22;4.43;;;4.23;;
48861;SDS011;34681;49.188;-0.374;2023-05-07T06:45:47;4.57;;;4.27;;
48861;SDS011;34681;49.188;-0.374;2023-05-07T06:48:13;4.93;;;4.63;;
48861;SDS011;34681;49.188;-0.374;2023-05-07T06:50:38;5.00;;;4.70;;
48861;SDS011;34681;49.188;-0.374;2023-05-07T06:53:03;4.70;;;4.40;;
48861;SDS011;34681;49.188;-0.374;2023-05-07T06:55:28;3.43;;;3.33;;
48861;SDS011;34681;49.188;-0.374;2023-05-07T06:57:54;3.73;;;3.60;;
48861;SDS011;34681;49.188;-0.374;2023-05-07T07:00:20;4.30;;;4.00;;
48861;SDS011;34681;49.188;-0.374;2023-05-07T07:02:45;3.37;;;3.27;;
48861;SDS011;34681;49.188;-0.374;2023-05-07T07:05:10;3.80;;;3.60;;
48861;SDS011;34681;49.188;-0.374;2023-05-07T07:07:36;4.60;;;4.40;;
48861;SDS011;34681;49.188;-0.374;2023-05-07T07:10:01;3.90;;;3.70;;
48861;SDS011;34681;49.188;-0.374;2023-05-07T07:12:29;4.40;;;4.20;;
48861;SDS011;34681;49.188;-0.374;2023-05-07T07:14:54;3.10;;;3.00;;
48861;SDS011;34681;49.188;-0.374;2023-05-07T07:17:20;3.43;;;3.23;;
48861;SDS011;34681;49.188;-0.374;2023-05-07T07:19:45;3.73;;;3.53;;
48861;SDS011;34681;49.188;-0.374;2023-05-07T07:22:11;3.13;;;2.93;;
48861;SDS011;34681;49.188;-0.374;2023-05-07T07:24:36;3.27;;;3.07;;
48861;SDS011;34681;49.188;-0.374;2023-05-07T07:27:01;3.10;;;2.90;;
48861;SDS011;34681;49.188;-0.374;2023-05-07T07:29:27;3.30;;;3.10;;
48861;SDS011;34681;49.188;-0.374;2023-05-07T07:31:52;3.40;;;3.30;;
48861;SDS011;34681;49.188;-0.374;2023-05-07T07:34:17;3.87;;;3.50;;
48861;SDS011;34681;49.188;-0.374;2023-05-07T07:36:43;3.60;;;3.40;;
48861;SDS011;34681;49.188;-0.374;2023-05-07T07:39:08;3.57;;;3.37;;
48861;SDS011;34681;49.188;-0.374;2023-05-07T07:41:34;3.17;;;2.97;;
48861;SDS011;34681;49.188;-0.374;2023-05-07T07:43:59;2.43;;;2.33;;
48861;SDS011;34681;49.188;-0.374;2023-05-07T07:46:24;2.67;;;2.57;;
48861;SDS011;34681;49.188;-0.374;2023-05-07T07:48:51;2.77;;;2.67;;
48861;SDS011;34681;49.188;-0.374;2023-05-07T07:51:16;3.77;;;3.57;;
48861;SDS011;34681;49.188;-0.374;2023-05-07T07:53:42;1.70;;;1.60;;
48861;SDS011;34681;49.188;-0.374;2023-05-07T07:56:07;2.17;;;2.07;;
48861;SDS011;34681;49.188;-0.374;2023-05-07T07:58:32;2.00;;;1.90;;
48861;SDS011;34681;49.188;-0.374;2023-05-07T08:00:58;2.00;;;1.90;;
48861;SDS011;34681;49.188;-0.374;2023-05-07T08:03:23;2.10;;;2.00;;
48861;SDS011;34681;49.188;-0.374;2023-05-07T08:05:48;1.93;;;1.83;;
48861;SDS011;34681;49.188;-0.374;2023-05-07T08:08:16;2.27;;;1.77;;
48861;SDS011;34681;49.188;-0.374;2023-05-07T08:10:41;2.00;;;1.80;;
48861;SDS011;34681;49.188;-0.374;2023-05-07T08:13:06;1.67;;;1.57;;
48861;SDS011;34681;49.188;-0.374;2023-05-07T08:15:32;1.80;;;1.70;;
48861;SDS011;34681;49.188;-0.374;2023-05-07T08:17:57;1.83;;;1.73;;
48861;SDS011;34681;49.188;-0.374;2023-05-07T08:20:24;1.70;;;1.60;;
48861;SDS011;34681;49.188;-0.374;2023-05-07T08:22:50;2.00;;;1.87;;
48861;SDS011;34681;49.188;-0.374;2023-05-07T08:25:16;1.80;;;1.70;;
48861;SDS011;34681;49.188;-0.374;2023-05-07T08:27:42;1.93;;;1.70;;
48861;SDS011;34681;49.188;-0.374;2023-05-07T08:30:07;2.10;;;1.90;;
48861;SDS011;34681;49.188;-0.374;2023-05-07T08:32:33;2.07;;;1.97;;
48861;SDS011;34681;49.188;-0.374;2023-05-07T08:34:59;2.20;;;2.10;;
48861;SDS011;34681;49.188;-0.374;2023-05-07T08:37:24;2.00;;;1.90;;
48861;SDS011;34681;49.188;-0.374;2023-05-07T08:39:50;1.50;;;1.40;;
48861;SDS011;34681;49.188;-0.374;2023-05-07T08:42:16;1.97;;;1.87;;
48861;SDS011;34681;49.188;-0.374;2023-05-07T08:44:41;2.70;;;2.30;;
48861;SDS011;34681;49.188;-0.374;2023-05-07T08:47:13;2.70;;;2.60;;
48861;SDS011;34681;49.188;-0.374;2023-05-07T08:49:39;3.00;;;2.50;;
48861;SDS011;34681;49.188;-0.374;2023-05-07T08:52:05;2.20;;;2.10;;
48861;SDS011;34681;49.188;-0.374;2023-05-07T08:54:30;2.10;;;2.00;;
48861;SDS011;34681;49.188;-0.374;2023-05-07T08:56:56;2.83;;;2.63;;
48861;SDS011;34681;49.188;-0.374;2023-05-07T08:59:21;3.07;;;2.77;;
48861;SDS011;34681;49.188;-0.374;2023-05-07T09:01:47;3.40;;;3.20;;
48861;SDS011;34681;49.188;-0.374;2023-05-07T09:04:12;2.20;;;2.00;;
48861;SDS011;34681;49.188;-0.374;2023-05-07T09:06:38;3.00;;;2.80;;
48861;SDS011;34681;49.188;-0.374;2023-05-07T09:09:06;3.03;;;2.83;;
48861;SDS011;34681;49.188;-0.374;2023-05-07T09:11:32;2.90;;;2.80;;
48861;SDS011;34681;49.188;-0.374;2023-05-07T09:13:57;5.10;;;3.60;;
48861;SDS011;34681;49.188;-0.374;2023-05-07T09:16:26;3.10;;;3.00;;
48861;SDS011;34681;49.188;-0.374;2023-05-07T09:18:53;2.77;;;2.67;;
48861;SDS011;34681;49.188;-0.374;2023-05-07T09:21:19;3.50;;;3.30;;
48861;SDS011;34681;49.188;-0.374;2023-05-07T09:23:47;3.43;;;3.23;;
48861;SDS011;34681;49.188;-0.374;2023-05-07T09:26:17;3.70;;;3.43;;
48861;SDS011;34681;49.188;-0.374;2023-05-07T09:28:43;2.77;;;2.67;;
48861;SDS011;34681;49.188;-0.374;2023-05-07T09:31:09;3.63;;;3.43;;
48861;SDS011;34681;49.188;-0.374;2023-05-07T09:33:35;3.20;;;3.00;;
48861;SDS011;34681;49.188;-0.374;2023-05-07T09:36:07;3.40;;;3.20;;
48861;SDS011;34681;49.188;-0.374;2023-05-07T09:38:35;3.20;;;3.00;;
48861;SDS011;34681;49.188;-0.374;2023-05-07T09:41:08;2.97;;;2.83;;
48861;SDS011;34681;49.188;-0.374;2023-05-07T09:43:36;3.00;;;2.77;;
48861;SDS011;34681;49.188;-0.374;2023-05-07T09:46:03;3.07;;;2.97;;
48861;SDS011;34681;49.188;-0.374;2023-05-07T09:48:32;3.93;;;3.73;;
48861;SDS011;34681;49.188;-0.374;2023-05-07T09:51:02;3.33;;;3.17;;
48861;SDS011;34681;49.188;-0.374;2023-05-07T09:53:31;4.23;;;3.97;;
48861;SDS011;34681;49.188;-0.374;2023-05-07T09:55:58;5.10;;;4.80;;
48861;SDS011;34681;49.188;-0.374;2023-05-07T09:58:25;5.70;;;5.30;;
48861;SDS011;34681;49.188;-0.374;2023-05-07T10:00:51;4.27;;;4.03;;
48861;SDS011;34681;49.188;-0.374;2023-05-07T10:03:17;6.70;;;6.10;;
48861;SDS011;34681;49.188;-0.374;2023-05-07T10:05:45;8.97;;;8.10;;
48861;SDS011;34681;49.188;-0.374;2023-05-07T10:08:12;9.17;;;8.33;;
48861;SDS011;34681;49.188;-0.374;2023-05-07T10:10:38;7.73;;;7.03;;
48861;SDS011;34681;49.188;-0.374;2023-05-07T10:13:03;10.60;;;8.00;;
48861;SDS011;34681;49.188;-0.374;2023-05-07T10:15:35;7.70;;;7.10;;
48861;SDS011;34681;49.188;-0.374;2023-05-07T10:18:00;9.20;;;6.70;;
48861;SDS011;34681;49.188;-0.374;2023-05-07T10:20:29;7.63;;;7.07;;
48861;SDS011;34681;49.188;-0.374;2023-05-07T10:22:56;17.53;;;7.90;;
48861;SDS011;34681;49.188;-0.374;2023-05-07T10:25:30;5.93;;;5.30;;
48861;SDS011;34681;49.188;-0.374;2023-05-07T10:27:57;4.73;;;4.40;;
48861;SDS011;34681;49.188;-0.374;2023-05-07T10:30:36;5.20;;;4.90;;
48861;SDS011;34681;49.188;-0.374;2023-05-07T10:33:14;5.70;;;5.30;;
48861;SDS011;34681;49.188;-0.374;2023-05-07T10:35:42;5.07;;;4.67;;
48861;SDS011;34681;49.188;-0.374;2023-05-07T10:38:09;4.90;;;4.60;;
48861;SDS011;34681;49.188;-0.374;2023-05-07T10:40:36;4.87;;;4.47;;
48861;SDS011;34681;49.188;-0.374;2023-05-07T10:43:02;6.20;;;5.57;;
48861;SDS011;34681;49.188;-0.374;2023-05-07T10:45:30;6.37;;;5.77;;
48861;SDS011;34681;49.188;-0.374;2023-05-07T10:50:50;5.03;;;4.70;;
48861;SDS011;34681;49.188;-0.374;2023-05-07T10:53:46;3.87;;;3.67;;
48861;SDS011;34681;49.188;-0.374;2023-05-07T10:56:32;3.50;;;3.30;;
48861;SDS011;34681;49.188;-0.374;2023-05-07T10:59:06;3.20;;;2.90;;
48861;SDS011;34681;49.188;-0.374;2023-05-07T11:02:04;2.50;;;2.40;;
48861;SDS011;34681;49.188;-0.374;2023-05-07T11:04:32;2.40;;;2.20;;
48861;SDS011;34681;49.188;-0.374;2023-05-07T11:15:14;1.93;;;1.80;;
48861;SDS011;34681;49.188;-0.374;2023-05-07T11:17:52;2.30;;;2.10;;
48861;SDS011;34681;49.188;-0.374;2023-05-07T11:20:19;2.17;;;2.00;;
48861;SDS011;34681;49.188;-0.374;2023-05-07T11:22:45;2.07;;;1.53;;
48861;SDS011;34681;49.188;-0.374;2023-05-07T11:25:11;1.70;;;1.60;;
48861;SDS011;34681;49.188;-0.374;2023-05-07T11:27:43;1.90;;;1.80;;
48861;SDS011;34681;49.188;-0.374;2023-05-07T11:30:09;1.60;;;1.50;;
48861;SDS011;34681;49.188;-0.374;2023-05-07T11:32:36;1.80;;;1.70;;
48861;SDS011;34681;49.188;-0.374;2023-05-07T11:35:02;1.80;;;1.70;;
48861;SDS011;34681;49.188;-0.374;2023-05-07T11:37:27;2.07;;;1.50;;
48861;SDS011;34681;49.188;-0.374;2023-05-07T11:40:02;1.60;;;1.50;;
48861;SDS011;34681;49.188;-0.374;2023-05-07T11:42:32;1.40;;;1.30;;
48861;SDS011;34681;49.188;-0.374;2023-05-07T11:44:59;1.87;;;1.77;;
48861;SDS011;34681;49.188;-0.374;2023-05-07T11:47:25;1.50;;;1.37;;
48861;SDS011;34681;49.188;-0.374;2023-05-07T11:49:51;1.73;;;1.63;;
48861;SDS011;34681;49.188;-0.374;2023-05-07T11:52:19;1.60;;;1.50;;
48861;SDS011;34681;49.188;-0.374;2023-05-07T11:54:52;2.73;;;1.60;;
48861;SDS011;34681;49.188;-0.374;2023-05-07T11:57:48;2.90;;;1.33;;
48861;SDS011;34681;49.188;-0.374;2023-05-07T12:00:22;1.30;;;1.20;;
48861;SDS011;34681;49.188;-0.374;2023-05-07T12:03:39;1.43;;;1.33;;
48861;SDS011;34681;49.188;-0.374;2023-05-07T12:06:10;2.10;;;1.90;;
48861;SDS011;34681;49.188;-0.374;2023-05-07T12:08:37;2.00;;;1.60;;
48861;SDS011;34681;49.188;-0.374;2023-05-07T12:11:04;1.53;;;1.43;;
48861;SDS011;34681;49.188;-0.374;2023-05-07T12:13:32;1.40;;;1.30;;
48861;SDS011;34681;49.188;-0.374;2023-05-07T12:15:57;1.70;;;1.60;;
48861;SDS011;34681;49.188;-0.374;2023-05-07T12:18:23;2.20;;;2.00;;
48861;SDS011;34681;49.188;-0.374;2023-05-07T12:20:50;2.40;;;2.20;;
48861;SDS011;34681;49.188;-0.374;2023-05-07T12:23:16;1.60;;;1.50;;
48861;SDS011;34681;49.188;-0.374;2023-05-07T12:25:42;2.10;;;1.90;;
48861;SDS011;34681;49.188;-0.374;2023-05-07T12:28:14;1.63;;;1.53;;
48861;SDS011;34681;49.188;-0.374;2023-05-07T12:30:46;1.93;;;1.83;;
48861;SDS011;34681;49.188;-0.374;2023-05-07T12:33:16;1.97;;;1.80;;
48861;SDS011;34681;49.188;-0.374;2023-05-07T12:35:43;2.13;;;1.93;;
48861;SDS011;34681;49.188;-0.374;2023-05-07T12:38:09;1.80;;;1.70;;
48861;SDS011;34681;49.188;-0.374;2023-05-07T12:40:40;2.17;;;2.07;;
48861;SDS011;34681;49.188;-0.374;2023-05-07T12:43:07;1.70;;;1.60;;
48861;SDS011;34681;49.188;-0.374;2023-05-07T12:45:40;2.90;;;2.07;;
48861;SDS011;34681;49.188;-0.374;2023-05-07T12:48:06;2.13;;;2.03;;
48861;SDS011;34681;49.188;-0.374;2023-05-07T12:50:34;2.23;;;2.00;;
48861;SDS011;34681;49.188;-0.374;2023-05-07T12:52:59;2.03;;;1.93;;
48861;SDS011;34681;49.188;-0.374;2023-05-07T12:55:30;1.90;;;1.80;;
48861;SDS011;34681;49.188;-0.374;2023-05-07T12:57:56;2.13;;;2.03;;
48861;SDS011;34681;49.188;-0.374;2023-05-07T13:00:38;2.77;;;2.17;;
48861;SDS011;34681;49.188;-0.374;2023-05-07T13:03:03;2.00;;;1.87;;
48861;SDS011;34681;49.188;-0.374;2023-05-07T13:05:31;2.03;;;1.80;;
48861;SDS011;34681;49.188;-0.374;2023-05-07T13:07:56;2.07;;;1.80;;
48861;SDS011;34681;49.188;-0.374;2023-05-07T13:10:23;2.30;;;1.90;;
48861;SDS011;34681;49.188;-0.374;2023-05-07T13:12:49;1.90;;;1.80;;
48861;SDS011;34681;49.188;-0.374;2023-05-07T13:15:15;1.70;;;1.60;;
48861;SDS011;34681;49.188;-0.374;2023-05-07T13:17:40;2.60;;;2.43;;
48861;SDS011;34681;49.188;-0.374;2023-05-07T13:20:06;4.50;;;2.17;;
48861;SDS011;34681;49.188;-0.374;2023-05-07T13:22:33;8.30;;;7.60;;
48861;SDS011;34681;49.188;-0.374;2023-05-07T13:24:58;8.33;;;7.60;;
48861;SDS011;34681;49.188;-0.374;2023-05-07T13:27:23;10.37;;;9.50;;
48861;SDS011;34681;49.188;-0.374;2023-05-07T13:29:49;11.70;;;9.83;;
48861;SDS011;34681;49.188;-0.374;2023-05-07T13:32:14;10.77;;;9.77;;
48861;SDS011;34681;49.188;-0.374;2023-05-07T13:34:39;11.67;;;10.67;;
48861;SDS011;34681;49.188;-0.374;2023-05-07T13:37:05;12.37;;;11.23;;
48861;SDS011;34681;49.188;-0.374;2023-05-07T13:39:32;11.87;;;10.77;;
48861;SDS011;34681;49.188;-0.374;2023-05-07T13:41:58;11.27;;;10.43;;
48861;SDS011;34681;49.188;-0.374;2023-05-07T13:44:23;10.80;;;9.50;;
48861;SDS011;34681;49.188;-0.374;2023-05-07T13:46:48;10.73;;;9.83;;
48861;SDS011;34681;49.188;-0.374;2023-05-07T13:49:14;11.23;;;10.13;;
48861;SDS011;34681;49.188;-0.374;2023-05-07T13:51:39;13.80;;;12.60;;
48861;SDS011;34681;49.188;-0.374;2023-05-07T13:54:05;12.30;;;11.20;;
48861;SDS011;34681;49.188;-0.374;2023-05-07T13:56:30;14.60;;;13.20;;
48861;SDS011;34681;49.188;-0.374;2023-05-07T13:58:57;13.80;;;12.40;;
48861;SDS011;34681;49.188;-0.374;2023-05-07T14:01:22;10.73;;;9.77;;
48861;SDS011;34681;49.188;-0.374;2023-05-07T14:03:48;11.73;;;10.83;;
48861;SDS011;34681;49.188;-0.374;2023-05-07T14:06:13;12.73;;;11.73;;
48861;SDS011;34681;49.188;-0.374;2023-05-07T14:08:39;11.33;;;10.43;;
48861;SDS011;34681;49.188;-0.374;2023-05-07T14:11:04;13.13;;;11.80;;
48861;SDS011;34681;49.188;-0.374;2023-05-07T14:13:30;12.73;;;11.40;;
48861;SDS011;34681;49.188;-0.374;2023-05-07T14:15:56;13.60;;;12.33;;
48861;SDS011;34681;49.188;-0.374;2023-05-07T14:18:22;12.03;;;11.00;;
48861;SDS011;34681;49.188;-0.374;2023-05-07T14:20:47;14.50;;;13.20;;
48861;SDS011;34681;49.188;-0.374;2023-05-07T14:23:13;14.53;;;13.20;;
48861;SDS011;34681;49.188;-0.374;2023-05-07T14:25:39;14.17;;;12.87;;
48861;SDS011;34681;49.188;-0.374;2023-05-07T14:28:04;13.87;;;12.67;;
48861;SDS011;34681;49.188;-0.374;2023-05-07T14:30:30;13.23;;;10.47;;
48861;SDS011;34681;49.188;-0.374;2023-05-07T14:32:55;13.60;;;12.50;;
48861;SDS011;34681;49.188;-0.374;2023-05-07T14:35:21;14.70;;;13.40;;
48861;SDS011;34681;49.188;-0.374;2023-05-07T14:37:46;14.03;;;12.67;;
48861;SDS011;34681;49.188;-0.374;2023-05-07T14:40:12;15.47;;;13.90;;
48861;SDS011;34681;49.188;-0.374;2023-05-07T14:42:37;16.93;;;15.33;;